Time,TemperatureF,DewpointF,PressureIn,WindDirection,WindDirectionDegrees,WindSpeedMPH,WindSpeedGustMPH,Humidity,HourlyPrecipIn,Conditions,Clouds,dailyrainin,SolarRadiationWatts/m^2,SoftwareType,DateUTC
2013-12-02 00:04:00,53.4,43.4,30.13,NW,311,1.0,3.0,69,0.00,,,0.00,0,HR-IXP-WINDi_r2_v1.2,2013-12-02 08:04:00,
2013-12-02 00:10:00,53.3,43.3,30.12,NW,311,0.0,3.0,69,0.00,,,0.00,0,HR-IXP-WINDi_r2_v1.2,2013-12-02 08:10:00,
2013-12-02 00:15:00,53.2,43.6,30.12,NW,311,0.0,2.0,70,0.00,,,0.00,0,HR-IXP-WINDi_r2_v1.2,2013-12-02 08:15:00,
2013-12-02 00:20:00,52.9,43.3,30.12,NW,311,1.0,1.0,70,0.00,,,0.00,0,HR-IXP-WINDi_r2_v1.2,2013-12-02 08:20:00,
2013-12-02 00:25:00,52.8,43.2,30.12,NW,311,2.0,2.0,70,0.00,,,0.00,0,HR-IXP-WINDi_r2_v1.2,2013-12-02 08:25:00,
2013-12-02 00:30:00,52.7,43.5,30.11,NW,311,0.0,2.0,71,0.00,,,0.00,0,HR-IXP-WINDi_r2_v1.2,2013-12-02 08:30:00,
2013-12-02 00:36:00,52.6,43.4,30.11,NW,311,0.0,1.0,71,0.00,,,0.00,0,HR-IXP-WINDi_r2_v1.2,2013-12-02 08:36:00,
2013-12-02 00:41:00,52.6,43.8,30.11,NW,311,0.0,1.0,72,0.00,,,0.00,0,HR-IXP-WINDi_r2_v1.2,2013-12-02 08:41:00,
2013-12-02 00:46:00,52.5,43.7,30.11,NW,311,0.0,1.0,72,0.00,,,0.00,0,HR-IXP-WINDi_r2_v1.2,2013-12-02 08:46:00,
2013-12-02 00:51:00,52.4,43.6,30.11,NW,311,0.0,1.0,72,0.00,,,0.00,0,HR-IXP-WINDi_r2_v1.2,2013-12-02 08:51:00,
2013-12-02 00:56:00,52.3,43.5,30.11,NW,311,0.0,1.0,72,0.00,,,0.00,0,HR-IXP-WINDi_r2_v1.2,2013-12-02 08:56:00,
2013-12-02 01:02:00,52.2,43.4,30.11,NW,311,0.0,0.0,72,0.00,,,0.00,0,HR-IXP-WINDi_r2_v1.2,2013-12-02 09:02:00,
2013-12-02 01:07:00,52.1,43.7,30.11,NW,311,0.0,1.0,73,0.00,,,0.00,0,HR-IXP-WINDi_r2_v1.2,2013-12-02 09:07:00,
2013-12-02 01:12:00,52.0,43.6,30.10,NW,311,0.0,1.0,73,0.00,,,0.00,0,HR-IXP-WINDi_r2_v1.2,2013-12-02 09:12:00,
2013-12-02 01:17:00,51.8,43.4,30.11,NW,311,0.0,1.0,73,0.00,,,0.00,0,HR-IXP-WINDi_r2_v1.2,2013-12-02 09:17:00,
2013-12-02 01:23:00,51.6,43.2,30.10,NW,311,0.0,1.0,73,0.00,,,0.01,0,HR-IXP-WINDi_r2_v1.2,2013-12-02 09:23:00,
2013-12-02 01:28:00,51.5,43.1,30.10,NW,311,0.0,1.0,73,0.00,,,0.01,0,HR-IXP-WINDi_r2_v1.2,2013-12-02 09:28:00,
2013-12-02 01:33:00,51.5,43.1,30.10,NW,311,0.0,0.0,73,0.00,,,0.01,0,HR-IXP-WINDi_r2_v1.2,2013-12-02 09:33:00,
2013-12-02 01:38:00,51.5,43.4,30.10,NW,311,0.0,1.0,74,0.00,,,0.01,0,HR-IXP-WINDi_r2_v1.2,2013-12-02 09:38:00,
2013-12-02 01:44:00,51.5,43.4,30.10,NW,311,0.0,1.0,74,0.00,,,0.01,0,HR-IXP-WINDi_r2_v1.2,2013-12-02 09:44:00,
2013-12-02 01:49:00,51.3,43.2,30.10,NW,311,0.0,1.0,74,0.00,,,0.01,0,HR-IXP-WINDi_r2_v1.2,2013-12-02 09:49:00,
2013-12-02 01:54:00,51.2,43.1,30.10,NW,311,0.0,1.0,74,0.00,,,0.01,0,HR-IXP-WINDi_r2_v1.2,2013-12-02 09:54:00,
2013-12-02 01:59:00,51.0,43.0,30.10,NW,311,0.0,1.0,74,0.00,,,0.01,0,HR-IXP-WINDi_r2_v1.2,2013-12-02 09:59:00,
2013-12-02 02:04:00,50.9,42.9,30.10,NW,311,0.0,1.0,74,0.00,,,0.01,0,HR-IXP-WINDi_r2_v1.2,2013-12-02 10:04:00,
2013-12-02 02:09:00,50.8,42.8,30.10,NW,311,0.0,1.0,74,0.00,,,0.01,0,HR-IXP-WINDi_r2_v1.2,2013-12-02 10:09:00,
2013-12-02 02:15:00,50.8,43.1,30.10,NW,311,0.0,1.0,75,0.00,,,0.01,0,HR-IXP-WINDi_r2_v1.2,2013-12-02 10:15:00,
2013-12-02 02:20:00,50.8,43.1,30.10,NW,311,1.0,1.0,75,0.00,,,0.01,0,HR-IXP-WINDi_r2_v1.2,2013-12-02 10:20:00,
2013-12-02 02:25:00,50.8,43.1,30.09,NW,311,0.0,1.0,75,0.00,,,0.01,0,HR-IXP-WINDi_r2_v1.2,2013-12-02 10:25:00,
2013-12-02 02:30:00,50.8,43.1,30.10,NW,311,1.0,1.0,75,0.00,,,0.01,0,HR-IXP-WINDi_r2_v1.2,2013-12-02 10:30:00,
2013-12-02 02:35:00,50.7,43.0,30.09,NW,311,0.0,1.0,75,0.00,,,0.01,0,HR-IXP-WINDi_r2_v1.2,2013-12-02 10:35:00,
2013-12-02 02:41:00,50.6,42.9,30.09,NW,311,0.0,1.0,75,0.00,,,0.01,0,HR-IXP-WINDi_r2_v1.2,2013-12-02 10:41:00,
2013-12-02 02:46:00,50.6,43.3,30.09,NW,311,0.0,1.0,76,0.00,,,0.01,0,HR-IXP-WINDi_r2_v1.2,2013-12-02 10:46:00,
2013-12-02 02:51:00,50.6,43.3,30.08,NW,311,0.0,1.0,76,0.00,,,0.01,0,HR-IXP-WINDi_r2_v1.2,2013-12-02 10:51:00,
2013-12-02 02:57:00,50.6,43.3,30.09,NW,311,0.0,1.0,76,0.00,,,0.01,0,HR-IXP-WINDi_r2_v1.2,2013-12-02 10:57:00,
2013-12-02 03:02:00,50.5,43.2,30.08,NW,311,0.0,0.0,76,0.00,,,0.01,0,HR-IXP-WINDi_r2_v1.2,2013-12-02 11:02:00,
2013-12-02 03:07:00,50.4,43.1,30.08,NW,311,0.0,1.0,76,0.00,,,0.01,0,HR-IXP-WINDi_r2_v1.2,2013-12-02 11:07:00,
2013-12-02 03:12:00,50.3,43.0,30.07,NW,311,0.0,1.0,76,0.00,,,0.01,0,HR-IXP-WINDi_r2_v1.2,2013-12-02 11:12:00,
2013-12-02 03:18:00,50.2,42.9,30.07,NW,311,0.0,0.0,76,0.00,,,0.01,0,HR-IXP-WINDi_r2_v1.2,2013-12-02 11:18:00,
2013-12-02 03:23:00,50.1,42.8,30.07,NW,311,0.0,0.0,76,0.00,,,0.01,0,HR-IXP-WINDi_r2_v1.2,2013-12-02 11:23:00,
2013-12-02 03:28:00,50.0,42.7,30.07,NW,311,0.0,1.0,76,0.00,,,0.01,0,HR-IXP-WINDi_r2_v1.2,2013-12-02 11:28:00,
2013-12-02 03:33:00,49.9,42.6,30.07,NW,311,0.0,1.0,76,0.00,,,0.01,0,HR-IXP-WINDi_r2_v1.2,2013-12-02 11:33:00,
2013-12-02 03:39:00,49.8,42.8,30.07,NW,311,0.0,1.0,77,0.00,,,0.01,0,HR-IXP-WINDi_r2_v1.2,2013-12-02 11:39:00,
2013-12-02 03:44:00,49.7,42.7,30.07,NW,311,0.0,1.0,77,0.00,,,0.01,0,HR-IXP-WINDi_r2_v1.2,2013-12-02 11:44:00,
2013-12-02 03:49:00,49.6,42.6,30.07,NW,311,0.0,1.0,77,0.00,,,0.01,0,HR-IXP-WINDi_r2_v1.2,2013-12-02 11:49:00,
2013-12-02 03:54:00,49.5,42.5,30.07,NW,311,0.0,1.0,77,0.00,,,0.01,0,HR-IXP-WINDi_r2_v1.2,2013-12-02 11:54:00,
2013-12-02 04:00:00,49.4,42.4,30.07,NW,311,0.0,1.0,77,0.00,,,0.01,0,HR-IXP-WINDi_r2_v1.2,2013-12-02 12:00:00,
2013-12-02 04:05:00,49.4,42.8,30.07,NW,311,0.0,1.0,78,0.00,,,0.01,0,HR-IXP-WINDi_r2_v1.2,2013-12-02 12:05:00,
2013-12-02 04:10:00,49.3,42.7,30.07,NW,311,0.0,1.0,78,0.00,,,0.01,0,HR-IXP-WINDi_r2_v1.2,2013-12-02 12:10:00,
2013-12-02 04:16:00,49.3,42.7,30.07,NW,311,0.0,0.0,78,0.00,,,0.01,0,HR-IXP-WINDi_r2_v1.2,2013-12-02 12:16:00,
2013-12-02 04:21:00,49.3,42.7,30.08,NW,311,0.0,0.0,78,0.00,,,0.01,0,HR-IXP-WINDi_r2_v1.2,2013-12-02 12:21:00,
2013-12-02 04:26:00,49.1,42.5,30.08,NW,311,0.0,0.0,78,0.00,,,0.01,0,HR-IXP-WINDi_r2_v1.2,2013-12-02 12:26:00,
2013-12-02 04:32:00,49.1,42.5,30.08,NW,311,0.0,1.0,78,0.00,,,0.01,0,HR-IXP-WINDi_r2_v1.2,2013-12-02 12:32:00,
2013-12-02 04:37:00,48.9,42.3,30.08,NW,311,1.0,1.0,78,0.00,,,0.01,0,HR-IXP-WINDi_r2_v1.2,2013-12-02 12:37:00,
2013-12-02 04:42:00,48.8,42.2,30.09,NW,311,0.0,1.0,78,0.00,,,0.01,0,HR-IXP-WINDi_r2_v1.2,2013-12-02 12:42:00,
2013-12-02 04:47:00,48.8,42.5,30.09,NW,311,0.0,1.0,79,0.00,,,0.01,0,HR-IXP-WINDi_r2_v1.2,2013-12-02 12:47:00,
2013-12-02 04:52:00,48.7,42.4,30.09,NW,311,0.0,1.0,79,0.00,,,0.01,0,HR-IXP-WINDi_r2_v1.2,2013-12-02 12:52:00,
2013-12-02 04:57:00,48.6,42.0,30.09,NW,311,0.0,0.0,78,0.00,,,0.01,0,HR-IXP-WINDi_r2_v1.2,2013-12-02 12:57:00,
2013-12-02 05:03:00,48.5,41.9,30.09,NW,311,0.0,0.0,78,0.00,,,0.01,0,HR-IXP-WINDi_r2_v1.2,2013-12-02 13:03:00,
2013-12-02 05:08:00,48.3,42.0,30.09,NW,311,0.0,0.0,79,0.00,,,0.01,0,HR-IXP-WINDi_r2_v1.2,2013-12-02 13:08:00,
2013-12-02 05:13:00,48.3,42.0,30.10,NW,311,0.0,0.0,79,0.00,,,0.01,0,HR-IXP-WINDi_r2_v1.2,2013-12-02 13:13:00,
2013-12-02 05:19:00,48.1,41.8,30.10,NW,311,0.0,0.0,79,0.00,,,0.01,0,HR-IXP-WINDi_r2_v1.2,2013-12-02 13:19:00,
2013-12-02 05:24:00,48.1,41.8,30.09,NW,311,0.0,0.0,79,0.00,,,0.01,0,HR-IXP-WINDi_r2_v1.2,2013-12-02 13:24:00,
2013-12-02 05:29:00,47.9,41.7,30.10,NW,311,0.0,0.0,79,0.00,,,0.01,0,HR-IXP-WINDi_r2_v1.2,2013-12-02 13:29:00,
2013-12-02 05:34:00,47.8,41.6,30.10,NW,311,1.0,2.0,79,0.00,,,0.01,0,HR-IXP-WINDi_r2_v1.2,2013-12-02 13:34:00,
2013-12-02 05:40:00,47.6,41.4,30.10,NW,311,1.0,2.0,79,0.00,,,0.01,0,HR-IXP-WINDi_r2_v1.2,2013-12-02 13:40:00,
2013-12-02 05:45:00,47.4,41.2,30.10,NW,311,0.0,2.0,79,0.00,,,0.01,0,HR-IXP-WINDi_r2_v1.2,2013-12-02 13:45:00,
2013-12-02 05:50:00,47.4,41.5,30.10,NW,311,0.0,1.0,80,0.00,,,0.01,0,HR-IXP-WINDi_r2_v1.2,2013-12-02 13:50:00,
2013-12-02 05:55:00,47.4,41.5,30.10,NW,311,0.0,1.0,80,0.00,,,0.01,0,HR-IXP-WINDi_r2_v1.2,2013-12-02 13:55:00,
2013-12-02 06:00:00,47.3,41.4,30.10,NW,311,0.0,1.0,80,0.00,,,0.01,0,HR-IXP-WINDi_r2_v1.2,2013-12-02 14:00:00,
2013-12-02 06:05:00,47.3,41.4,30.10,NW,311,0.0,0.0,80,0.00,,,0.01,0,HR-IXP-WINDi_r2_v1.2,2013-12-02 14:05:00,
2013-12-02 06:10:00,47.3,41.4,30.11,NW,311,1.0,1.0,80,0.00,,,0.01,0,HR-IXP-WINDi_r2_v1.2,2013-12-02 14:10:00,
2013-12-02 06:16:00,47.3,41.1,30.11,NW,311,0.0,1.0,79,0.00,,,0.01,0,HR-IXP-WINDi_r2_v1.2,2013-12-02 14:16:00,
2013-12-02 06:21:00,47.4,41.2,30.11,NW,311,0.0,1.0,79,0.00,,,0.01,0,HR-IXP-WINDi_r2_v1.2,2013-12-02 14:21:00,
2013-12-02 06:26:00,47.4,41.2,30.11,NW,311,0.0,1.0,79,0.00,,,0.01,0,HR-IXP-WINDi_r2_v1.2,2013-12-02 14:26:00,
2013-12-02 06:32:00,47.5,40.9,30.11,NW,311,0.0,1.0,78,0.00,,,0.01,0,HR-IXP-WINDi_r2_v1.2,2013-12-02 14:32:00,
2013-12-02 06:37:00,47.5,40.9,30.11,NW,311,0.0,1.0,78,0.00,,,0.01,0,HR-IXP-WINDi_r2_v1.2,2013-12-02 14:37:00,
2013-12-02 06:42:00,47.5,40.9,30.11,NW,311,0.0,1.0,78,0.00,,,0.01,0,HR-IXP-WINDi_r2_v1.2,2013-12-02 14:42:00,
2013-12-02 06:48:00,47.6,41.0,30.10,NW,311,0.0,1.0,78,0.00,,,0.01,9,HR-IXP-WINDi_r2_v1.2,2013-12-02 14:48:00,
2013-12-02 06:53:00,47.6,40.7,30.11,NW,311,0.0,1.0,77,0.00,,,0.01,12,HR-IXP-WINDi_r2_v1.2,2013-12-02 14:53:00,
2013-12-02 06:58:00,47.7,40.8,30.11,NW,311,0.0,1.0,77,0.00,,,0.01,18,HR-IXP-WINDi_r2_v1.2,2013-12-02 14:58:00,
2013-12-02 07:03:00,47.7,40.8,30.11,NW,311,0.0,1.0,77,0.00,,,0.01,19,HR-IXP-WINDi_r2_v1.2,2013-12-02 15:03:00,
2013-12-02 07:08:00,47.8,40.6,30.11,NW,311,0.0,1.0,76,0.00,,,0.01,25,HR-IXP-WINDi_r2_v1.2,2013-12-02 15:08:00,
2013-12-02 07:13:00,47.9,40.7,30.11,NW,311,0.0,1.0,76,0.00,,,0.01,26,HR-IXP-WINDi_r2_v1.2,2013-12-02 15:13:00,
2013-12-02 07:18:00,47.9,41.0,30.11,NW,311,1.0,1.0,77,0.00,,,0.01,32,HR-IXP-WINDi_r2_v1.2,2013-12-02 15:18:00,
2013-12-02 07:24:00,48.1,41.2,30.11,NW,311,0.0,1.0,77,0.00,,,0.01,39,HR-IXP-WINDi_r2_v1.2,2013-12-02 15:24:00,
2013-12-02 07:29:00,48.2,40.9,30.11,NW,311,0.0,1.0,76,0.00,,,0.01,40,HR-IXP-WINDi_r2_v1.2,2013-12-02 15:29:00,
2013-12-02 07:34:00,48.3,41.0,30.11,NW,311,0.0,0.0,76,0.00,,,0.01,46,HR-IXP-WINDi_r2_v1.2,2013-12-02 15:34:00,
2013-12-02 07:39:00,48.7,41.4,30.11,NW,311,0.0,0.0,76,0.00,,,0.01,79,HR-IXP-WINDi_r2_v1.2,2013-12-02 15:39:00,
2013-12-02 07:44:00,49.7,41.7,30.11,NW,311,0.0,0.0,74,0.00,,,0.01,77,HR-IXP-WINDi_r2_v1.2,2013-12-02 15:44:00,
2013-12-02 07:50:00,50.5,42.5,30.10,NW,311,0.0,0.0,74,0.00,,,0.01,81,HR-IXP-WINDi_r2_v1.2,2013-12-02 15:50:00,
2013-12-02 07:55:00,51.1,42.7,30.11,NW,311,0.0,0.0,73,0.00,,,0.01,95,HR-IXP-WINDi_r2_v1.2,2013-12-02 15:55:00,
2013-12-02 08:00:00,51.7,43.3,30.11,NW,311,0.0,0.0,73,0.00,,,0.01,132,HR-IXP-WINDi_r2_v1.2,2013-12-02 16:00:00,
2013-12-02 08:05:00,52.3,43.9,30.11,NW,311,0.0,0.0,73,0.00,,,0.01,127,HR-IXP-WINDi_r2_v1.2,2013-12-02 16:05:00,
2013-12-02 08:11:00,53.0,44.2,30.11,NW,311,0.0,0.0,72,0.00,,,0.01,169,HR-IXP-WINDi_r2_v1.2,2013-12-02 16:11:00,
2013-12-02 08:16:00,53.8,44.6,30.11,NW,311,0.0,0.0,71,0.00,,,0.01,127,HR-IXP-WINDi_r2_v1.2,2013-12-02 16:16:00,
2013-12-02 08:21:00,54.5,44.5,30.11,NW,311,0.0,0.0,69,0.00,,,0.01,135,HR-IXP-WINDi_r2_v1.2,2013-12-02 16:21:00,
2013-12-02 08:26:00,55.0,43.8,30.11,NW,311,1.0,1.0,66,0.00,,,0.01,137,HR-IXP-WINDi_r2_v1.2,2013-12-02 16:26:00,
2013-12-02 08:32:00,55.5,43.1,30.10,NW,311,0.0,2.0,63,0.00,,,0.01,130,HR-IXP-WINDi_r2_v1.2,2013-12-02 16:32:00,
2013-12-02 08:37:00,56.2,43.7,30.10,NW,311,0.0,2.0,63,0.00,,,0.01,163,HR-IXP-WINDi_r2_v1.2,2013-12-02 16:37:00,
2013-12-02 08:42:00,56.9,44.0,30.10,NW,311,0.0,1.0,62,0.00,,,0.01,137,HR-IXP-WINDi_r2_v1.2,2013-12-02 16:42:00,
2013-12-02 08:47:00,57.2,43.4,30.11,NW,311,0.0,1.0,60,0.00,,,0.01,148,HR-IXP-WINDi_r2_v1.2,2013-12-02 16:47:00,
2013-12-02 08:52:00,57.5,43.2,30.11,NW,311,0.0,1.0,59,0.00,,,0.01,163,HR-IXP-WINDi_r2_v1.2,2013-12-02 16:52:00,
2013-12-02 08:58:00,57.9,43.2,30.10,NW,311,0.0,1.0,58,0.00,,,0.01,176,HR-IXP-WINDi_r2_v1.2,2013-12-02 16:58:00,
2013-12-02 09:03:00,58.5,43.7,30.10,NW,311,0.0,1.0,58,0.00,,,0.01,185,HR-IXP-WINDi_r2_v1.2,2013-12-02 17:03:00,
2013-12-02 09:08:00,58.9,43.6,30.11,NW,311,0.0,2.0,57,0.00,,,0.01,190,HR-IXP-WINDi_r2_v1.2,2013-12-02 17:08:00,
2013-12-02 09:13:00,59.3,43.6,30.11,NW,311,0.0,2.0,56,0.00,,,0.01,230,HR-IXP-WINDi_r2_v1.2,2013-12-02 17:13:00,
2013-12-02 09:18:00,59.9,43.6,30.11,NW,311,1.0,2.0,55,0.00,,,0.01,255,HR-IXP-WINDi_r2_v1.2,2013-12-02 17:18:00,
2013-12-02 09:23:00,60.4,43.1,30.11,NW,311,1.0,2.0,53,0.00,,,0.01,186,HR-IXP-WINDi_r2_v1.2,2013-12-02 17:23:00,
2013-12-02 09:28:00,60.8,43.0,30.10,NW,311,0.0,3.0,52,0.00,,,0.01,234,HR-IXP-WINDi_r2_v1.2,2013-12-02 17:28:00,
2013-12-02 09:34:00,61.4,42.6,30.10,NW,311,2.0,3.0,50,0.00,,,0.01,264,HR-IXP-WINDi_r2_v1.2,2013-12-02 17:34:00,
2013-12-02 09:39:00,62.4,42.9,30.10,NW,311,1.0,3.0,49,0.00,,,0.01,334,HR-IXP-WINDi_r2_v1.2,2013-12-02 17:39:00,
2013-12-02 09:44:00,63.2,42.6,30.11,NW,312,2.0,3.0,47,0.00,,,0.01,214,HR-IXP-WINDi_r2_v1.2,2013-12-02 17:44:00,
2013-12-02 09:49:00,63.6,41.8,30.10,NW,312,1.0,4.0,45,0.00,,,0.01,288,HR-IXP-WINDi_r2_v1.2,2013-12-02 17:49:00,
2013-12-02 09:54:00,64.7,42.8,30.10,NW,322,1.0,4.0,45,0.00,,,0.01,339,HR-IXP-WINDi_r2_v1.2,2013-12-02 17:54:00,
2013-12-02 09:59:00,65.9,42.7,30.10,NW,322,0.0,2.0,43,0.00,,,0.01,269,HR-IXP-WINDi_r2_v1.2,2013-12-02 17:59:00,
2013-12-02 10:04:00,66.5,42.0,30.10,NW,322,0.0,1.0,41,0.00,,,0.01,278,HR-IXP-WINDi_r2_v1.2,2013-12-02 18:04:00,
2013-12-02 10:09:00,67.0,41.8,30.10,NW,322,0.0,1.0,40,0.00,,,0.01,279,HR-IXP-WINDi_r2_v1.2,2013-12-02 18:09:00,
2013-12-02 10:14:00,67.8,42.6,30.10,NNW,338,1.0,2.0,40,0.00,,,0.01,308,HR-IXP-WINDi_r2_v1.2,2013-12-02 18:14:00,
2013-12-02 10:20:00,69.1,43.7,30.09,NNW,338,1.0,2.0,40,0.00,,,0.01,323,HR-IXP-WINDi_r2_v1.2,2013-12-02 18:20:00,
2013-12-02 10:25:00,69.8,43.7,30.08,NNW,342,1.0,2.0,39,0.00,,,0.01,334,HR-IXP-WINDi_r2_v1.2,2013-12-02 18:25:00,
2013-12-02 10:30:00,70.3,44.1,30.08,NNW,342,1.0,2.0,39,0.00,,,0.01,394,HR-IXP-WINDi_r2_v1.2,2013-12-02 18:30:00,
2013-12-02 10:35:00,71.5,43.1,30.07,North,355,0.0,2.0,36,0.00,,,0.01,301,HR-IXP-WINDi_r2_v1.2,2013-12-02 18:35:00,
2013-12-02 10:40:00,71.6,43.9,30.08,North,5,0.0,2.0,37,0.00,,,0.01,264,HR-IXP-WINDi_r2_v1.2,2013-12-02 18:40:00,
2013-12-02 10:46:00,71.5,41.6,30.07,North,5,0.0,2.0,34,0.00,,,0.01,264,HR-IXP-WINDi_r2_v1.2,2013-12-02 18:46:00,
2013-12-02 10:51:00,70.6,41.6,30.07,North,5,0.0,2.0,35,0.00,,,0.01,267,HR-IXP-WINDi_r2_v1.2,2013-12-02 18:51:00,
2013-12-02 10:56:00,70.0,41.8,30.07,North,5,3.0,3.0,36,0.00,,,0.01,304,HR-IXP-WINDi_r2_v1.2,2013-12-02 18:56:00,
2013-12-02 11:02:00,70.8,41.0,30.07,North,5,1.0,3.0,34,0.00,,,0.01,359,HR-IXP-WINDi_r2_v1.2,2013-12-02 19:02:00,
2013-12-02 11:07:00,70.9,41.1,30.06,North,360,2.0,3.0,34,0.00,,,0.01,520,HR-IXP-WINDi_r2_v1.2,2013-12-02 19:07:00,
2013-12-02 11:12:00,71.2,40.6,30.06,North,360,0.0,3.0,33,0.00,,,0.01,334,HR-IXP-WINDi_r2_v1.2,2013-12-02 19:12:00,
2013-12-02 11:17:00,71.8,41.1,30.06,NNE,25,0.0,3.0,33,0.00,,,0.01,557,HR-IXP-WINDi_r2_v1.2,2013-12-02 19:17:00,
2013-12-02 11:22:00,72.2,41.5,30.06,NNE,24,1.0,3.0,33,0.00,,,0.01,561,HR-IXP-WINDi_r2_v1.2,2013-12-02 19:22:00,
2013-12-02 11:27:00,71.9,42.0,30.06,NNW,335,3.0,3.0,34,0.00,,,0.01,420,HR-IXP-WINDi_r2_v1.2,2013-12-02 19:27:00,
2013-12-02 11:32:00,71.9,41.2,30.07,NNW,343,1.0,4.0,33,0.00,,,0.01,473,HR-IXP-WINDi_r2_v1.2,2013-12-02 19:32:00,
2013-12-02 11:38:00,71.7,41.8,30.07,NNW,340,0.0,4.0,34,0.00,,,0.01,367,HR-IXP-WINDi_r2_v1.2,2013-12-02 19:38:00,
2013-12-02 11:43:00,71.3,42.2,30.06,WSW,248,1.0,4.0,35,0.00,,,0.01,403,HR-IXP-WINDi_r2_v1.2,2013-12-02 19:43:00,
2013-12-02 11:48:00,71.4,42.3,30.05,WNW,288,1.0,4.0,35,0.00,,,0.01,367,HR-IXP-WINDi_r2_v1.2,2013-12-02 19:48:00,
2013-12-02 11:53:00,71.4,41.5,30.05,WNW,287,0.0,4.0,34,0.00,,,0.01,329,HR-IXP-WINDi_r2_v1.2,2013-12-02 19:53:00,
2013-12-02 11:59:00,71.5,40.9,30.05,West,279,1.0,4.0,33,0.00,,,0.00,396,HR-IXP-WINDi_r2_v1.2,2013-12-02 19:59:00,
2013-12-02 12:04:00,71.4,41.5,30.05,SW,217,3.0,4.0,34,0.00,,,0.00,336,HR-IXP-WINDi_r2_v1.2,2013-12-02 20:04:00,
2013-12-02 12:09:00,71.3,41.5,30.04,SW,227,1.0,4.0,34,0.00,,,0.00,366,HR-IXP-WINDi_r2_v1.2,2013-12-02 20:09:00,
2013-12-02 12:15:00,71.4,41.5,30.04,SW,234,1.0,5.0,34,0.00,,,0.00,415,HR-IXP-WINDi_r2_v1.2,2013-12-02 20:15:00,
2013-12-02 12:20:00,71.8,42.6,30.04,WNW,286,0.0,5.0,35,0.00,,,0.00,443,HR-IXP-WINDi_r2_v1.2,2013-12-02 20:20:00,
2013-12-02 12:25:00,72.2,42.2,30.04,West,275,1.0,5.0,34,0.00,,,0.00,387,HR-IXP-WINDi_r2_v1.2,2013-12-02 20:25:00,
2013-12-02 12:30:00,72.5,42.5,30.04,SW,223,2.0,5.0,34,0.00,,,0.00,374,HR-IXP-WINDi_r2_v1.2,2013-12-02 20:30:00,
2013-12-02 12:35:00,72.4,41.6,30.04,WSW,250,1.0,5.0,33,0.00,,,0.00,394,HR-IXP-WINDi_r2_v1.2,2013-12-02 20:35:00,
2013-12-02 12:41:00,72.5,41.7,30.05,SW,233,2.0,5.0,33,0.00,,,0.00,257,HR-IXP-WINDi_r2_v1.2,2013-12-02 20:41:00,
2013-12-02 12:46:00,72.7,41.9,30.04,SW,223,2.0,5.0,33,0.00,,,0.00,503,HR-IXP-WINDi_r2_v1.2,2013-12-02 20:46:00,
2013-12-02 12:51:00,73.0,43.7,30.04,SSW,206,1.0,5.0,35,0.00,,,0.00,392,HR-IXP-WINDi_r2_v1.2,2013-12-02 20:51:00,
2013-12-02 12:56:00,73.2,46.0,30.03,SSW,195,2.0,5.0,38,0.00,,,0.00,288,HR-IXP-WINDi_r2_v1.2,2013-12-02 20:56:00,
2013-12-02 13:02:00,73.0,45.9,30.03,SSW,204,2.0,5.0,38,0.00,,,0.00,271,HR-IXP-WINDi_r2_v1.2,2013-12-02 21:02:00,
2013-12-02 13:07:00,72.4,46.0,30.03,SSW,213,1.0,5.0,39,0.00,,,0.00,366,HR-IXP-WINDi_r2_v1.2,2013-12-02 21:07:00,
2013-12-02 13:12:00,72.3,45.2,30.02,SSW,202,1.0,5.0,38,0.00,,,0.00,345,HR-IXP-WINDi_r2_v1.2,2013-12-02 21:12:00,
2013-12-02 13:17:00,72.5,45.4,30.02,SW,219,2.0,6.0,38,0.00,,,0.00,338,HR-IXP-WINDi_r2_v1.2,2013-12-02 21:17:00,
2013-12-02 13:22:00,72.1,45.1,30.02,SW,221,2.0,6.0,38,0.00,,,0.00,287,HR-IXP-WINDi_r2_v1.2,2013-12-02 21:22:00,
2013-12-02 13:27:00,71.8,44.8,30.02,SW,217,3.0,5.0,38,0.00,,,0.00,290,HR-IXP-WINDi_r2_v1.2,2013-12-02 21:27:00,
2013-12-02 13:32:00,71.6,45.3,30.01,SW,223,5.0,5.0,39,0.00,,,0.00,255,HR-IXP-WINDi_r2_v1.2,2013-12-02 21:32:00,
2013-12-02 13:38:00,71.6,46.0,30.01,SSW,200,2.0,5.0,40,0.00,,,0.00,287,HR-IXP-WINDi_r2_v1.2,2013-12-02 21:38:00,
2013-12-02 13:43:00,71.4,46.4,30.01,SW,222,2.0,7.0,41,0.00,,,0.00,230,HR-IXP-WINDi_r2_v1.2,2013-12-02 21:43:00,
2013-12-02 13:48:00,71.2,46.9,30.01,SW,220,3.0,7.0,42,0.00,,,0.00,225,HR-IXP-WINDi_r2_v1.2,2013-12-02 21:48:00,
2013-12-02 13:53:00,71.1,46.8,30.00,SW,227,2.0,6.0,42,0.00,,,0.00,244,HR-IXP-WINDi_r2_v1.2,2013-12-02 21:53:00,
2013-12-02 13:58:00,70.9,46.0,30.00,South,180,4.0,5.0,41,0.00,,,0.00,243,HR-IXP-WINDi_r2_v1.2,2013-12-02 21:58:00,
2013-12-02 14:04:00,70.9,46.0,30.00,SSW,193,1.0,6.0,41,0.00,,,0.00,260,HR-IXP-WINDi_r2_v1.2,2013-12-02 22:04:00,
2013-12-02 14:09:00,70.9,45.3,30.00,South,179,3.0,6.0,40,0.00,,,0.00,213,HR-IXP-WINDi_r2_v1.2,2013-12-02 22:09:00,
2013-12-02 14:14:00,71.1,45.5,30.00,South,170,2.0,5.0,40,0.00,,,0.00,216,HR-IXP-WINDi_r2_v1.2,2013-12-02 22:14:00,
2013-12-02 14:19:00,70.8,44.6,29.99,SW,221,2.0,4.0,39,0.00,,,0.00,195,HR-IXP-WINDi_r2_v1.2,2013-12-02 22:19:00,
2013-12-02 14:25:00,70.9,44.7,29.99,South,175,1.0,4.0,39,0.00,,,0.00,197,HR-IXP-WINDi_r2_v1.2,2013-12-02 22:25:00,
2013-12-02 14:30:00,71.0,46.1,29.98,South,175,1.0,3.0,41,0.00,,,0.00,190,HR-IXP-WINDi_r2_v1.2,2013-12-02 22:30:00,
2013-12-02 14:35:00,71.0,46.1,29.98,South,175,0.0,3.0,41,0.00,,,0.00,232,HR-IXP-WINDi_r2_v1.2,2013-12-02 22:35:00,
2013-12-02 14:40:00,71.4,46.4,29.98,SSE,165,1.0,4.0,41,0.00,,,0.00,190,HR-IXP-WINDi_r2_v1.2,2013-12-02 22:40:00,
2013-12-02 14:46:00,71.2,45.6,29.98,SSW,198,2.0,4.0,40,0.00,,,0.00,163,HR-IXP-WINDi_r2_v1.2,2013-12-02 22:46:00,
2013-12-02 14:51:00,71.0,46.1,29.97,SSW,198,1.0,4.0,41,0.00,,,0.00,186,HR-IXP-WINDi_r2_v1.2,2013-12-02 22:51:00,
2013-12-02 14:56:00,70.8,46.5,29.97,SSW,204,1.0,4.0,42,0.00,,,0.00,172,HR-IXP-WINDi_r2_v1.2,2013-12-02 22:56:00,
2013-12-02 15:02:00,70.8,47.2,29.97,SSW,204,0.0,4.0,43,0.00,,,0.00,149,HR-IXP-WINDi_r2_v1.2,2013-12-02 23:02:00,
2013-12-02 15:07:00,70.9,46.0,29.97,SSW,204,0.0,2.0,41,0.00,,,0.00,163,HR-IXP-WINDi_r2_v1.2,2013-12-02 23:07:00,
2013-12-02 15:12:00,71.0,46.7,29.97,SSW,204,1.0,3.0,42,0.00,,,0.00,167,HR-IXP-WINDi_r2_v1.2,2013-12-02 23:12:00,
2013-12-02 15:17:00,71.3,46.3,29.97,South,181,1.0,3.0,41,0.00,,,0.00,158,HR-IXP-WINDi_r2_v1.2,2013-12-02 23:17:00,
2013-12-02 15:23:00,71.6,47.3,29.96,South,179,0.0,3.0,42,0.00,,,0.00,144,HR-IXP-WINDi_r2_v1.2,2013-12-02 23:23:00,
2013-12-02 15:28:00,71.6,46.6,29.96,South,179,1.0,2.0,41,0.00,,,0.00,181,HR-IXP-WINDi_r2_v1.2,2013-12-02 23:28:00,
2013-12-02 15:34:00,71.5,45.2,29.96,South,185,0.0,3.0,39,0.00,,,0.00,123,HR-IXP-WINDi_r2_v1.2,2013-12-02 23:34:00,
2013-12-02 15:39:00,71.2,44.9,29.96,South,187,0.0,4.0,39,0.00,,,0.00,107,HR-IXP-WINDi_r2_v1.2,2013-12-02 23:39:00,
2013-12-02 15:44:00,70.9,45.3,29.96,South,187,0.0,4.0,40,0.00,,,0.00,91,HR-IXP-WINDi_r2_v1.2,2013-12-02 23:44:00,
2013-12-02 15:49:00,70.7,46.4,29.96,South,187,1.0,2.0,42,0.00,,,0.00,77,HR-IXP-WINDi_r2_v1.2,2013-12-02 23:49:00,
2013-12-02 15:55:00,70.2,47.2,29.96,South,187,1.0,2.0,44,0.00,,,0.00,72,HR-IXP-WINDi_r2_v1.2,2013-12-02 23:55:00,
2013-12-02 16:00:00,69.7,48.0,29.96,South,187,0.0,2.0,46,0.00,,,0.00,60,HR-IXP-WINDi_r2_v1.2,2013-12-03 00:00:00,
2013-12-02 16:05:00,69.2,48.1,29.97,South,187,2.0,3.0,47,0.00,,,0.00,47,HR-IXP-WINDi_r2_v1.2,2013-12-03 00:05:00,
2013-12-02 16:10:00,68.9,48.4,29.96,South,187,0.0,3.0,48,0.00,,,0.00,37,HR-IXP-WINDi_r2_v1.2,2013-12-03 00:10:00,
2013-12-02 16:15:00,68.7,48.7,29.96,South,187,1.0,3.0,49,0.00,,,0.00,32,HR-IXP-WINDi_r2_v1.2,2013-12-03 00:15:00,
2013-12-02 16:21:00,68.3,48.4,29.96,South,187,1.0,2.0,49,0.00,,,0.00,21,HR-IXP-WINDi_r2_v1.2,2013-12-03 00:21:00,
2013-12-02 16:26:00,67.9,48.0,29.96,South,187,0.0,2.0,49,0.00,,,0.00,16,HR-IXP-WINDi_r2_v1.2,2013-12-03 00:26:00,
2013-12-02 16:31:00,67.8,48.4,29.96,South,187,0.0,1.0,50,0.00,,,0.00,14,HR-IXP-WINDi_r2_v1.2,2013-12-03 00:31:00,
2013-12-02 16:36:00,67.7,48.3,29.96,South,187,0.0,1.0,50,0.00,,,0.00,7,HR-IXP-WINDi_r2_v1.2,2013-12-03 00:36:00,
2013-12-02 16:42:00,67.7,48.3,29.96,South,187,0.0,0.0,50,0.00,,,0.00,0,HR-IXP-WINDi_r2_v1.2,2013-12-03 00:42:00,
2013-12-02 16:47:00,67.5,48.7,29.95,South,187,0.0,0.0,51,0.00,,,0.00,0,HR-IXP-WINDi_r2_v1.2,2013-12-03 00:47:00,
2013-12-02 16:53:00,67.0,48.7,29.95,South,187,0.0,1.0,52,0.00,,,0.00,0,HR-IXP-WINDi_r2_v1.2,2013-12-03 00:53:00,
2013-12-02 16:58:00,66.7,49.0,29.95,South,187,0.0,1.0,53,0.00,,,0.00,0,HR-IXP-WINDi_r2_v1.2,2013-12-03 00:58:00,
2013-12-02 17:03:00,66.5,48.8,29.95,South,187,0.0,0.0,53,0.00,,,0.00,0,HR-IXP-WINDi_r2_v1.2,2013-12-03 01:03:00,
2013-12-02 17:08:00,66.2,48.5,29.95,South,187,0.0,0.0,53,0.00,,,0.00,0,HR-IXP-WINDi_r2_v1.2,2013-12-03 01:08:00,
2013-12-02 17:13:00,66.0,48.8,29.95,South,187,0.0,1.0,54,0.00,,,0.00,0,HR-IXP-WINDi_r2_v1.2,2013-12-03 01:13:00,
2013-12-02 17:18:00,65.6,48.9,29.95,South,187,0.0,1.0,55,0.00,,,0.00,0,HR-IXP-WINDi_r2_v1.2,2013-12-03 01:18:00,
2013-12-02 17:24:00,65.2,49.1,29.95,South,187,0.0,1.0,56,0.00,,,0.00,0,HR-IXP-WINDi_r2_v1.2,2013-12-03 01:24:00,
2013-12-02 17:29:00,64.8,49.2,29.95,South,187,0.0,1.0,57,0.00,,,0.00,0,HR-IXP-WINDi_r2_v1.2,2013-12-03 01:29:00,
2013-12-02 17:34:00,64.2,49.1,29.95,South,187,2.0,3.0,58,0.00,,,0.00,0,HR-IXP-WINDi_r2_v1.2,2013-12-03 01:34:00,
2013-12-02 17:39:00,63.8,49.1,29.95,South,187,0.0,3.0,59,0.00,,,0.00,0,HR-IXP-WINDi_r2_v1.2,2013-12-03 01:39:00,
2013-12-02 17:44:00,63.5,49.3,29.96,South,187,2.0,3.0,60,0.00,,,0.00,0,HR-IXP-WINDi_r2_v1.2,2013-12-03 01:44:00,
2013-12-02 17:50:00,63.2,49.5,29.95,SSW,194,1.0,3.0,61,0.00,,,0.00,0,HR-IXP-WINDi_r2_v1.2,2013-12-03 01:50:00,
2013-12-02 17:55:00,62.9,49.6,29.95,SSW,194,1.0,3.0,62,0.00,,,0.00,0,HR-IXP-WINDi_r2_v1.2,2013-12-03 01:55:00,
2013-12-02 18:00:00,62.6,49.3,29.95,SSW,194,1.0,3.0,62,0.00,,,0.00,0,HR-IXP-WINDi_r2_v1.2,2013-12-03 02:00:00,
2013-12-02 18:05:00,62.5,49.3,29.96,SSW,194,1.0,4.0,62,0.00,,,0.00,0,HR-IXP-WINDi_r2_v1.2,2013-12-03 02:05:00,
2013-12-02 18:11:00,62.4,49.6,29.96,SSW,194,2.0,4.0,63,0.00,,,0.00,0,HR-IXP-WINDi_r2_v1.2,2013-12-03 02:11:00,
2013-12-02 18:16:00,62.3,49.9,29.96,SSW,195,1.0,4.0,64,0.00,,,0.00,0,HR-IXP-WINDi_r2_v1.2,2013-12-03 02:16:00,
2013-12-02 18:21:00,62.3,49.9,29.96,SSW,203,2.0,4.0,64,0.00,,,0.00,0,HR-IXP-WINDi_r2_v1.2,2013-12-03 02:21:00,
2013-12-02 18:26:00,62.3,50.3,29.97,SSW,212,1.0,3.0,65,0.00,,,0.00,0,HR-IXP-WINDi_r2_v1.2,2013-12-03 02:26:00,
2013-12-02 18:32:00,62.3,50.3,29.96,SSW,212,0.0,3.0,65,0.00,,,0.00,0,HR-IXP-WINDi_r2_v1.2,2013-12-03 02:32:00,
2013-12-02 18:37:00,62.2,50.2,29.96,SSW,212,0.0,2.0,65,0.00,,,0.00,0,HR-IXP-WINDi_r2_v1.2,2013-12-03 02:37:00,
2013-12-02 18:42:00,62.2,50.6,29.97,SSW,212,0.0,1.0,66,0.00,,,0.00,0,HR-IXP-WINDi_r2_v1.2,2013-12-03 02:42:00,
2013-12-02 18:47:00,62.1,50.6,29.97,SSW,212,0.0,1.0,66,0.00,,,0.00,0,HR-IXP-WINDi_r2_v1.2,2013-12-03 02:47:00,
2013-12-02 18:52:00,62.0,50.5,29.97,SSW,212,0.0,0.0,66,0.00,,,0.00,0,HR-IXP-WINDi_r2_v1.2,2013-12-03 02:52:00,
2013-12-02 18:58:00,61.8,50.3,29.96,SSW,212,0.0,0.0,66,0.00,,,0.00,0,HR-IXP-WINDi_r2_v1.2,2013-12-03 02:58:00,
2013-12-02 19:03:00,61.6,50.5,29.96,SSW,212,0.0,0.0,67,0.00,,,0.00,0,HR-IXP-WINDi_r2_v1.2,2013-12-03 03:03:00,
2013-12-02 19:08:00,61.4,50.3,29.96,SSW,212,0.0,0.0,67,0.00,,,0.00,0,HR-IXP-WINDi_r2_v1.2,2013-12-03 03:08:00,
2013-12-02 19:13:00,61.1,50.4,29.97,SSW,212,0.0,0.0,68,0.00,,,0.00,0,HR-IXP-WINDi_r2_v1.2,2013-12-03 03:13:00,
2013-12-02 19:18:00,60.9,50.6,29.96,SSW,212,0.0,0.0,69,0.00,,,0.00,0,HR-IXP-WINDi_r2_v1.2,2013-12-03 03:18:00,
2013-12-02 19:24:00,60.7,50.4,29.96,SSW,212,0.0,0.0,69,0.00,,,0.00,0,HR-IXP-WINDi_r2_v1.2,2013-12-03 03:24:00,
2013-12-02 19:29:00,60.3,50.0,29.96,SSW,212,0.0,1.0,69,0.00,,,0.00,0,HR-IXP-WINDi_r2_v1.2,2013-12-03 03:29:00,
2013-12-02 19:34:00,60.0,50.1,29.96,SSW,212,0.0,1.0,70,0.00,,,0.00,0,HR-IXP-WINDi_r2_v1.2,2013-12-03 03:34:00,
2013-12-02 19:39:00,59.8,49.9,29.96,SSW,212,0.0,0.0,70,0.00,,,0.00,0,HR-IXP-WINDi_r2_v1.2,2013-12-03 03:39:00,
2013-12-02 19:45:00,59.5,50.0,29.96,SSW,212,0.0,0.0,71,0.00,,,0.00,0,HR-IXP-WINDi_r2_v1.2,2013-12-03 03:45:00,
2013-12-02 19:50:00,59.2,49.7,29.96,SSW,212,0.0,0.0,71,0.00,,,0.00,0,HR-IXP-WINDi_r2_v1.2,2013-12-03 03:50:00,
2013-12-02 19:55:00,58.9,49.5,29.96,SSW,212,0.0,0.0,71,0.00,,,0.00,0,HR-IXP-WINDi_r2_v1.2,2013-12-03 03:55:00,
2013-12-02 20:01:00,58.6,49.5,29.96,SSW,212,0.0,0.0,72,0.00,,,0.00,0,HR-IXP-WINDi_r2_v1.2,2013-12-03 04:01:00,
2013-12-02 20:06:00,58.4,49.7,29.96,SSW,212,0.0,0.0,73,0.00,,,0.00,0,HR-IXP-WINDi_r2_v1.2,2013-12-03 04:06:00,
2013-12-02 20:11:00,57.9,49.6,29.96,SSW,212,0.0,1.0,74,0.00,,,0.00,0,HR-IXP-WINDi_r2_v1.2,2013-12-03 04:11:00,
2013-12-02 20:16:00,57.7,49.8,29.96,SSW,212,0.0,1.0,75,0.00,,,0.00,0,HR-IXP-WINDi_r2_v1.2,2013-12-03 04:16:00,
2013-12-02 20:21:00,57.5,49.6,29.96,SSW,212,0.0,0.0,75,0.00,,,0.00,0,HR-IXP-WINDi_r2_v1.2,2013-12-03 04:21:00,
2013-12-02 20:27:00,57.4,49.5,29.96,SSW,212,0.0,0.0,75,0.00,,,0.00,0,HR-IXP-WINDi_r2_v1.2,2013-12-03 04:27:00,
2013-12-02 20:32:00,57.2,49.3,29.96,SSW,212,0.0,0.0,75,0.00,,,0.00,0,HR-IXP-WINDi_r2_v1.2,2013-12-03 04:32:00,
2013-12-02 20:37:00,57.0,49.5,29.95,SSW,212,0.0,0.0,76,0.00,,,0.00,0,HR-IXP-WINDi_r2_v1.2,2013-12-03 04:37:00,
2013-12-02 20:43:00,56.8,49.3,29.95,SSW,212,0.0,0.0,76,0.00,,,0.00,0,HR-IXP-WINDi_r2_v1.2,2013-12-03 04:43:00,
2013-12-02 20:48:00,56.5,49.0,29.95,SSW,212,0.0,0.0,76,0.00,,,0.00,0,HR-IXP-WINDi_r2_v1.2,2013-12-03 04:48:00,
2013-12-02 20:53:00,56.3,49.1,29.95,SSW,212,0.0,0.0,77,0.00,,,0.00,0,HR-IXP-WINDi_r2_v1.2,2013-12-03 04:53:00,
2013-12-02 20:58:00,56.2,49.0,29.95,SSW,212,0.0,0.0,77,0.00,,,0.00,0,HR-IXP-WINDi_r2_v1.2,2013-12-03 04:58:00,
2013-12-02 21:01:00,56.1,48.9,29.95,SSW,212,0.0,0.0,77,0.00,,,0.00,0,HR-IXP-WINDi_r2_v1.2,2013-12-03 05:01:00,
2013-12-02 21:06:00,55.9,48.7,29.95,SSW,212,0.0,0.0,77,0.00,,,0.00,0,HR-IXP-WINDi_r2_v1.2,2013-12-03 05:06:00,
2013-12-02 21:11:00,55.7,48.9,29.95,SSW,212,0.0,0.0,78,0.00,,,0.00,0,HR-IXP-WINDi_r2_v1.2,2013-12-03 05:11:00,
2013-12-02 21:16:00,55.5,48.7,29.95,SSW,212,0.0,0.0,78,0.00,,,0.00,0,HR-IXP-WINDi_r2_v1.2,2013-12-03 05:16:00,
2013-12-02 21:22:00,55.3,48.5,29.95,SSW,212,0.0,0.0,78,0.00,,,0.00,0,HR-IXP-WINDi_r2_v1.2,2013-12-03 05:22:00,
2013-12-02 21:27:00,55.2,48.4,29.95,SSW,212,0.0,0.0,78,0.00,,,0.00,0,HR-IXP-WINDi_r2_v1.2,2013-12-03 05:27:00,
2013-12-02 21:32:00,55.1,48.6,29.95,SSW,212,0.0,0.0,79,0.00,,,0.00,0,HR-IXP-WINDi_r2_v1.2,2013-12-03 05:32:00,
2013-12-02 21:37:00,55.0,48.5,29.95,SSW,212,0.0,0.0,79,0.00,,,0.00,0,HR-IXP-WINDi_r2_v1.2,2013-12-03 05:37:00,
2013-12-02 21:42:00,54.9,48.5,29.95,SSW,212,0.0,0.0,79,0.00,,,0.00,0,HR-IXP-WINDi_r2_v1.2,2013-12-03 05:42:00,
2013-12-02 21:47:00,54.8,48.4,29.94,SSW,212,0.0,0.0,79,0.00,,,0.00,0,HR-IXP-WINDi_r2_v1.2,2013-12-03 05:47:00,
2013-12-02 21:53:00,54.7,48.6,29.94,SSW,212,0.0,0.0,80,0.00,,,0.00,0,HR-IXP-WINDi_r2_v1.2,2013-12-03 05:53:00,
2013-12-02 21:58:00,54.6,48.2,29.94,SSW,212,0.0,0.0,79,0.00,,,0.00,0,HR-IXP-WINDi_r2_v1.2,2013-12-03 05:58:00,
2013-12-02 22:03:00,54.5,48.1,29.94,SSW,212,0.0,0.0,79,0.00,,,0.00,0,HR-IXP-WINDi_r2_v1.2,2013-12-03 06:03:00,
2013-12-02 22:08:00,54.4,48.3,29.94,SSW,212,0.0,0.0,80,0.00,,,0.00,0,HR-IXP-WINDi_r2_v1.2,2013-12-03 06:08:00,
2013-12-02 22:14:00,54.2,48.1,29.94,SSW,212,0.0,0.0,80,0.00,,,0.00,0,HR-IXP-WINDi_r2_v1.2,2013-12-03 06:14:00,
2013-12-02 22:19:00,54.0,47.9,29.95,SSW,212,0.0,0.0,80,0.00,,,0.00,0,HR-IXP-WINDi_r2_v1.2,2013-12-03 06:19:00,
2013-12-02 22:24:00,53.9,48.1,29.94,SSW,212,0.0,0.0,81,0.00,,,0.00,0,HR-IXP-WINDi_r2_v1.2,2013-12-03 06:24:00,
2013-12-02 22:29:00,53.8,48.0,29.94,SSW,212,0.0,0.0,81,0.00,,,0.00,0,HR-IXP-WINDi_r2_v1.2,2013-12-03 06:29:00,
2013-12-02 22:34:00,53.7,47.9,29.94,SSW,212,0.0,0.0,81,0.00,,,0.00,0,HR-IXP-WINDi_r2_v1.2,2013-12-03 06:34:00,
2013-12-02 22:39:00,53.6,47.9,29.94,SSW,212,0.0,0.0,81,0.00,,,0.00,0,HR-IXP-WINDi_r2_v1.2,2013-12-03 06:39:00,
2013-12-02 22:45:00,53.4,47.7,29.94,SSW,212,0.0,0.0,81,0.00,,,0.00,0,HR-IXP-WINDi_r2_v1.2,2013-12-03 06:45:00,
2013-12-02 22:50:00,53.3,47.6,29.94,SSW,212,0.0,0.0,81,0.00,,,0.00,0,HR-IXP-WINDi_r2_v1.2,2013-12-03 06:50:00,
2013-12-02 22:55:00,53.2,47.8,29.94,SSW,212,0.0,0.0,82,0.00,,,0.00,0,HR-IXP-WINDi_r2_v1.2,2013-12-03 06:55:00,
2013-12-02 23:01:00,53.0,47.6,29.94,SSW,212,0.0,0.0,82,0.00,,,0.00,0,HR-IXP-WINDi_r2_v1.2,2013-12-03 07:01:00,
2013-12-02 23:06:00,52.9,47.5,29.94,SSW,212,0.0,0.0,82,0.00,,,0.00,0,HR-IXP-WINDi_r2_v1.2,2013-12-03 07:06:00,
2013-12-02 23:11:00,52.7,47.3,29.94,SSW,212,0.0,0.0,82,0.00,,,0.00,0,HR-IXP-WINDi_r2_v1.2,2013-12-03 07:11:00,
2013-12-02 23:16:00,52.6,47.2,29.94,SSW,212,0.0,0.0,82,0.00,,,0.00,0,HR-IXP-WINDi_r2_v1.2,2013-12-03 07:16:00,
2013-12-02 23:21:00,52.5,47.1,29.94,SSW,212,0.0,0.0,82,0.00,,,0.00,0,HR-IXP-WINDi_r2_v1.2,2013-12-03 07:21:00,
2013-12-02 23:26:00,52.4,47.0,29.94,SSW,212,0.0,0.0,82,0.00,,,0.00,0,HR-IXP-WINDi_r2_v1.2,2013-12-03 07:26:00,
2013-12-02 23:32:00,52.3,46.9,29.94,SSW,212,0.0,0.0,82,0.00,,,0.00,0,HR-IXP-WINDi_r2_v1.2,2013-12-03 07:32:00,
2013-12-02 23:37:00,52.1,46.7,29.94,SSW,212,0.0,0.0,82,0.00,,,0.00,0,HR-IXP-WINDi_r2_v1.2,2013-12-03 07:37:00,
2013-12-02 23:42:00,52.0,46.9,29.94,SSW,212,0.0,0.0,83,0.00,,,0.00,0,HR-IXP-WINDi_r2_v1.2,2013-12-03 07:42:00,
2013-12-02 23:47:00,51.8,46.7,29.94,SSW,212,0.0,0.0,83,0.00,,,0.00,0,HR-IXP-WINDi_r2_v1.2,2013-12-03 07:47:00,
2013-12-02 23:52:00,51.7,46.6,29.94,SSW,212,0.0,0.0,83,0.00,,,0.00,0,HR-IXP-WINDi_r2_v1.2,2013-12-03 07:52:00,
2013-12-02 23:57:00,51.5,46.5,29.94,SSW,212,0.0,0.0,83,0.00,,,0.00,0,HR-IXP-WINDi_r2_v1.2,2013-12-03 07:57:00,